Time;durP1;ratioP1;P1;durP2;ratioP2;P2;SDS_P1;SDS_P2;PMS_P1;PMS_P2;Temp;Humidity;BMP_temperature;BMP_pressure;BME280_temperature;BME280_humidity;BME280_pressure;Samples;Min_cycle;Max_cycle;Signal;HPM_P1;HPM_P2
2022/01/23 00:02:27;;;;;;;8.30;4.13;;;6.70;95.60;;;;;;6184841;23;20017;-75
2022/01/23 00:05:04;;;;;;;9.75;4.53;;;6.70;95.60;;;;;;6185175;23;20123;-74
2022/01/23 00:07:32;;;;;;;7.28;4.40;;;6.70;95.70;;;;;;6112253;23;20080;-74
2022/01/23 00:09:59;;;;;;;8.38;4.80;;;6.70;95.70;;;;;;6159351;23;20447;-73
2022/01/23 00:12:27;;;;;;;6.97;3.90;;;6.70;95.70;;;;;;6133230;23;20027;-74
2022/01/23 00:17:41;;;;;;;6.85;3.97;;;6.70;95.70;;;;;;6139577;23;20025;-73
2022/01/23 00:20:08;;;;;;;8.07;4.60;;;6.70;95.70;;;;;;6160091;23;20088;-74
2022/01/23 00:22:42;;;;;;;9.32;4.75;;;6.70;95.70;;;;;;6159471;23;20448;-74
2022/01/23 00:30:41;;;;;;;8.20;4.30;;;6.80;95.80;;;;;;6139361;23;20021;-74
2022/01/23 00:33:13;;;;;;;8.10;4.55;;;6.70;95.70;;;;;;6136585;23;20013;-73
2022/01/23 00:35:43;;;;;;;7.65;5.20;;;6.70;95.70;;;;;;6159584;23;20345;-74
2022/01/23 00:38:11;;;;;;;9.70;4.75;;;6.70;95.70;;;;;;6136106;23;20083;-73
2022/01/23 00:40:39;;;;;;;11.32;5.70;;;6.70;95.80;;;;;;6135300;23;20021;-74
2022/01/23 00:43:14;;;;;;;11.23;5.60;;;6.70;96.10;;;;;;6136416;23;20483;-74
2022/01/23 00:45:50;;;;;;;7.68;5.50;;;6.80;95.80;;;;;;6162037;23;20063;-74
2022/01/23 00:48:25;;;;;;;11.23;5.65;;;6.70;95.80;;;;;;6160939;23;20050;-73
2022/01/23 00:50:51;;;;;;;10.25;6.25;;;6.70;95.80;;;;;;6161378;23;20024;-74
2022/01/23 00:53:16;;;;;;;15.93;7.18;;;6.70;95.80;;;;;;6135686;23;20017;-74
2022/01/23 00:55:43;;;;;;;11.27;6.50;;;6.70;95.80;;;;;;6111069;23;20028;-74
2022/01/23 00:58:10;;;;;;;10.30;5.70;;;6.70;95.80;;;;;;6111507;23;20024;-73
2022/01/23 01:00:50;;;;;;;13.55;5.82;;;6.70;95.80;;;;;;6142243;23;20028;-73
2022/01/23 01:03:26;;;;;;;10.13;5.53;;;6.70;95.80;;;;;;6139642;23;20016;-74
2022/01/23 01:05:54;;;;;;;9.55;5.65;;;6.70;95.80;;;;;;6135818;23;20063;-73
2022/01/23 01:08:27;;;;;;;8.35;5.68;;;6.70;95.80;;;;;;6136636;23;20013;-76
2022/01/23 01:11:36;;;;;;;10.35;6.22;;;6.70;95.80;;;;;;6134682;23;20092;-74
2022/01/23 01:35:48;;;;;;;11.40;6.00;;;6.70;95.90;;;;;;6139020;23;20017;-74
2022/01/23 01:38:13;;;;;;;12.73;6.43;;;6.70;95.90;;;;;;6137123;23;20056;-74
2022/01/23 01:40:39;;;;;;;10.63;7.03;;;6.70;95.90;;;;;;6135203;23;20017;-75
2022/01/23 01:43:06;;;;;;;11.45;7.18;;;6.70;95.90;;;;;;6160125;23;20090;-74
2022/01/23 01:45:33;;;;;;;10.30;6.78;;;6.70;96.00;;;;;;6159816;23;20344;-79
2022/01/23 01:48:01;;;;;;;10.45;6.30;;;6.70;95.90;;;;;;6159566;23;20053;-74
2022/01/23 01:50:28;;;;;;;11.60;7.10;;;6.70;96.00;;;;;;6159827;23;20024;-74
2022/01/23 01:52:54;;;;;;;9.13;6.35;;;6.70;96.00;;;;;;6110870;23;20049;-73
2022/01/23 01:55:26;;;;;;;13.35;6.78;;;6.70;96.00;;;;;;6134741;23;20017;-73
2022/01/23 01:57:55;;;;;;;13.63;7.80;;;6.70;96.00;;;;;;6136154;23;20407;-73
2022/01/23 02:10:50;;;;;;;12.32;6.75;;;6.70;96.00;;;;;;6159361;23;20103;-75
2022/01/23 02:13:36;;;;;;;12.55;6.53;;;6.70;96.00;;;;;;6161421;23;20044;-74
2022/01/23 02:56:55;;;;;;;10.10;5.93;;;6.70;96.00;;;;;;6138022;23;20021;-74
2022/01/23 02:59:24;;;;;;;11.57;6.88;;;6.70;96.10;;;;;;6135598;23;20025;-74
2022/01/23 03:04:29;;;;;;;9.38;5.47;;;6.70;96.00;;;;;;6162440;23;20039;-74
2022/01/23 03:07:13;;;;;;;9.40;6.03;;;6.70;96.10;;;;;;6159144;23;20317;-74
2022/01/23 03:09:56;;;;;;;8.50;5.90;;;6.70;96.00;;;;;;6185195;23;20023;-74
2022/01/23 03:34:06;;;;;;;9.40;6.45;;;6.70;96.10;;;;;;6160234;23;20025;-74
2022/01/23 03:36:32;;;;;;;10.20;6.45;;;6.70;96.00;;;;;;6159252;23;20039;-74
2022/01/23 03:38:58;;;;;;;10.00;6.18;;;6.70;96.00;;;;;;6108909;23;20029;-73
2022/01/23 03:41:27;;;;;;;8.38;5.85;;;6.70;96.10;;;;;;6159807;23;20021;-74
2022/01/23 03:43:53;;;;;;;12.07;6.40;;;6.70;96.10;;;;;;6134011;23;20023;-74
2022/01/23 03:46:33;;;;;;;10.20;6.38;;;6.70;96.00;;;;;;6158916;23;20024;-73
2022/01/23 03:51:47;;;;;;;10.40;6.28;;;6.70;96.10;;;;;;6136634;23;20029;-74
2022/01/23 03:54:12;;;;;;;9.00;5.93;;;6.70;96.10;;;;;;6133997;23;20095;-74
2022/01/23 03:56:40;;;;;;;10.95;7.13;;;6.70;96.10;;;;;;6131699;23;20021;-74
2022/01/23 03:59:07;;;;;;;8.57;5.78;;;6.70;96.10;;;;;;6183514;23;20031;-73
2022/01/23 04:01:35;;;;;;;10.00;6.40;;;6.70;96.10;;;;;;6158400;23;20028;-73
2022/01/23 04:04:22;;;;;;;12.30;7.10;;;6.70;96.10;;;;;;6159645;23;20051;-73
2022/01/23 04:06:49;;;;;;;11.02;7.00;;;6.70;96.10;;;;;;6134387;23;20021;-74
2022/01/23 04:09:16;;;;;;;11.00;6.75;;;6.70;96.10;;;;;;6109593;23;20017;-74
2022/01/23 04:11:43;;;;;;;10.13;6.20;;;6.70;96.10;;;;;;6158874;23;20084;-74
2022/01/23 04:14:12;;;;;;;10.50;6.13;;;6.70;96.10;;;;;;6134065;23;20021;-74
2022/01/23 04:19:35;;;;;;;13.55;6.80;;;6.70;96.10;;;;;;6135903;23;20293;-74
2022/01/23 04:33:44;;;;;;;10.40;6.30;;;6.70;96.10;;;;;;6163951;23;20027;-74
2022/01/23 05:01:37;;;;;;;10.23;6.53;;;6.60;96.00;;;;;;6155596;23;20056;-75
2022/01/23 05:06:47;;;;;;;14.32;7.97;;;6.60;96.10;;;;;;6184339;23;20526;-76
2022/01/23 05:09:16;;;;;;;12.85;7.88;;;6.70;96.10;;;;;;6162936;23;20359;-75
2022/01/23 05:11:49;;;;;;;13.85;7.50;;;6.70;96.10;;;;;;6135225;23;20100;-75
2022/01/23 05:14:28;;;;;;;12.15;7.80;;;6.60;96.10;;;;;;6138984;23;20095;-75
2022/01/23 05:16:54;;;;;;;12.13;8.73;;;6.60;96.10;;;;;;6136907;23;20028;-74
2022/01/23 05:19:20;;;;;;;14.82;9.40;;;6.60;96.10;;;;;;6134855;23;20460;-74
2022/01/23 05:24:18;;;;;;;15.30;9.55;;;6.60;96.10;;;;;;6159886;23;20025;-74
2022/01/23 05:26:45;;;;;;;18.65;10.35;;;6.70;96.10;;;;;;6135480;23;20048;-74
2022/01/23 05:29:13;;;;;;;14.07;9.90;;;6.60;96.10;;;;;;6110972;23;20459;-73
2022/01/23 05:31:39;;;;;;;16.33;9.88;;;6.60;96.10;;;;;;6111047;23;20021;-74
2022/01/23 05:34:05;;;;;;;18.27;10.82;;;6.60;96.10;;;;;;6135192;23;20096;-75
2022/01/23 05:36:31;;;;;;;16.15;9.60;;;6.70;96.10;;;;;;6186437;23;20400;-74
2022/01/23 05:39:01;;;;;;;16.35;10.00;;;6.60;96.10;;;;;;6159489;23;20072;-74
2022/01/23 05:41:28;;;;;;;17.73;10.48;;;6.60;96.10;;;;;;6159799;23;20463;-73
2022/01/23 05:43:53;;;;;;;18.13;11.23;;;6.60;96.10;;;;;;6135394;23;20024;-74
2022/01/23 05:46:19;;;;;;;19.05;11.10;;;6.60;96.10;;;;;;6156625;23;20059;-73
2022/01/23 05:48:46;;;;;;;17.85;10.90;;;6.60;96.10;;;;;;6152614;23;20071;-75
2022/01/23 05:51:13;;;;;;;17.13;11.07;;;6.60;96.10;;;;;;6134751;23;20021;-74
2022/01/23 05:53:39;;;;;;;17.08;11.43;;;6.60;96.10;;;;;;6134118;23;20340;-74
2022/01/23 05:56:05;;;;;;;18.05;10.93;;;6.60;96.10;;;;;;6159925;23;20013;-73
2022/01/23 05:58:31;;;;;;;16.88;11.23;;;6.60;96.10;;;;;;6109361;23;20475;-73
2022/01/23 06:00:57;;;;;;;17.58;11.02;;;6.60;96.10;;;;;;6134353;23;20025;-74
2022/01/23 06:03:27;;;;;;;15.55;11.52;;;6.60;96.10;;;;;;6159691;23;20021;-73
2022/01/23 06:05:54;;;;;;;17.63;10.70;;;6.60;96.10;;;;;;6110681;23;20021;-76
2022/01/23 06:08:22;;;;;;;15.85;10.77;;;6.60;96.10;;;;;;6159767;23;20056;-74
2022/01/23 06:10:56;;;;;;;17.92;11.43;;;6.60;96.10;;;;;;6160012;23;20048;-74
2022/01/23 06:13:32;;;;;;;16.52;10.80;;;6.60;96.10;;;;;;6115838;23;20181;-74
2022/01/23 06:15:58;;;;;;;17.10;10.77;;;6.60;96.10;;;;;;6160229;23;20017;-74
2022/01/23 06:18:30;;;;;;;19.38;11.02;;;6.60;96.10;;;;;;6159277;23;20072;-74
2022/01/23 06:20:55;;;;;;;16.00;10.65;;;6.60;96.10;;;;;;6135135;23;20021;-73
2022/01/23 06:23:24;;;;;;;17.73;11.32;;;6.60;96.10;;;;;;6134960;23;20017;-74
2022/01/23 06:25:50;;;;;;;17.02;10.60;;;6.60;96.20;;;;;;6186418;23;20025;-74
2022/01/23 06:28:35;;;;;;;16.95;10.63;;;6.60;96.10;;;;;;6134612;23;20029;-75
2022/01/23 06:31:04;;;;;;;17.65;10.70;;;6.60;96.10;;;;;;6162867;23;20021;-75
2022/01/23 06:33:34;;;;;;;18.33;10.15;;;6.60;96.10;;;;;;6159795;23;20013;-73
2022/01/23 06:36:02;;;;;;;18.17;10.43;;;6.60;96.10;;;;;;6111295;23;20096;-75
2022/01/23 06:38:29;;;;;;;16.42;10.20;;;6.60;96.10;;;;;;6158909;23;20048;-74
2022/01/23 06:40:55;;;;;;;18.52;10.50;;;6.60;96.10;;;;;;6159912;23;20017;-74
2022/01/23 06:43:22;;;;;;;18.30;10.93;;;6.60;96.10;;;;;;6134385;23;20148;-74
2022/01/23 06:45:48;;;;;;;15.77;10.80;;;6.60;96.10;;;;;;6135025;23;20027;-73
2022/01/23 06:48:14;;;;;;;17.55;11.57;;;6.60;96.10;;;;;;6109729;23;20020;-76
2022/01/23 06:50:40;;;;;;;17.67;11.20;;;6.60;96.10;;;;;;6109924;23;20020;-76
2022/01/23 06:53:06;;;;;;;15.23;10.05;;;6.60;96.10;;;;;;6159370;23;20079;-74
2022/01/23 06:55:32;;;;;;;17.38;10.27;;;6.60;96.20;;;;;;6110132;23;20028;-75
2022/01/23 06:57:58;;;;;;;15.48;10.70;;;6.60;96.20;;;;;;6110207;23;20339;-74
2022/01/23 07:00:23;;;;;;;15.05;9.13;;;6.60;96.20;;;;;;6110211;23;20052;-74
2022/01/23 07:02:49;;;;;;;17.23;10.23;;;6.60;96.20;;;;;;6159259;23;20021;-74
2022/01/23 07:05:16;;;;;;;16.92;11.50;;;6.60;96.20;;;;;;6134622;23;20028;-76
2022/01/23 07:07:45;;;;;;;14.70;10.10;;;6.60;96.20;;;;;;6183877;23;20033;-76
2022/01/23 07:10:11;;;;;;;16.33;10.43;;;6.60;96.20;;;;;;6159589;23;20415;-74
2022/01/23 07:12:50;;;;;;;15.65;9.80;;;6.60;96.20;;;;;;6159124;23;20013;-74
2022/01/23 07:15:17;;;;;;;14.98;9.88;;;6.60;96.20;;;;;;6159810;23;20017;-74
2022/01/23 07:17:43;;;;;;;14.98;9.43;;;6.60;96.20;;;;;;6134271;23;20115;-74
2022/01/23 07:20:17;;;;;;;13.30;8.73;;;6.60;96.20;;;;;;6112031;23;20024;-74
2022/01/23 07:22:50;;;;;;;14.40;9.95;;;6.60;96.20;;;;;;6135003;23;20028;-74
2022/01/23 07:25:17;;;;;;;14.35;9.30;;;6.60;96.20;;;;;;6184588;23;20017;-74
2022/01/23 07:27:52;;;;;;;14.55;9.43;;;6.60;96.20;;;;;;6158832;23;20017;-74
2022/01/23 07:30:37;;;;;;;14.80;8.68;;;6.50;96.10;;;;;;6138337;23;20051;-74
2022/01/23 07:33:03;;;;;;;14.02;9.43;;;6.50;96.10;;;;;;6112879;23;20013;-74
2022/01/23 07:35:30;;;;;;;15.75;9.35;;;6.60;96.20;;;;;;6106721;23;20395;-74
2022/01/23 07:37:59;;;;;;;15.25;9.48;;;6.60;96.20;;;;;;6159064;23;20017;-74
2022/01/23 07:40:25;;;;;;;14.32;8.95;;;6.60;96.20;;;;;;6109591;23;20398;-74
2022/01/23 07:42:54;;;;;;;13.55;9.52;;;6.60;96.20;;;;;;6135999;23;20060;-74
2022/01/23 07:45:19;;;;;;;16.92;9.55;;;6.60;96.20;;;;;;6085917;23;20080;-74
2022/01/23 07:47:48;;;;;;;13.65;9.30;;;6.50;96.10;;;;;;6158903;23;20025;-74
2022/01/23 07:50:16;;;;;;;17.25;9.55;;;6.60;96.10;;;;;;6111367;23;20056;-74
2022/01/23 07:52:54;;;;;;;13.45;9.25;;;6.60;96.20;;;;;;6116186;23;20023;-74
2022/01/23 07:55:30;;;;;;;12.07;8.17;;;6.60;96.20;;;;;;6137051;23;20078;-75
2022/01/23 07:58:05;;;;;;;12.68;9.00;;;6.60;96.10;;;;;;6182960;23;20702;-74
2022/01/23 08:00:33;;;;;;;13.95;8.88;;;6.60;96.10;;;;;;6158348;23;20049;-74
2022/01/23 08:03:02;;;;;;;14.98;9.48;;;6.60;96.10;;;;;;6159709;23;20013;-74
2022/01/23 08:05:28;;;;;;;14.82;10.30;;;6.60;96.10;;;;;;6158516;23;20032;-74
2022/01/23 08:07:56;;;;;;;15.95;10.10;;;6.60;96.10;;;;;;6134677;23;20440;-74
2022/01/23 08:10:29;;;;;;;14.32;8.45;;;6.60;96.10;;;;;;6135483;23;20021;-74
2022/01/23 08:12:55;;;;;;;18.70;9.10;;;6.60;96.10;;;;;;6134337;23;20163;-75
2022/01/23 08:15:21;;;;;;;15.05;8.40;;;6.60;96.10;;;;;;6157080;23;20044;-74
2022/01/23 08:17:53;;;;;;;13.85;9.15;;;6.70;96.10;;;;;;6157869;23;20024;-76
2022/01/23 08:20:21;;;;;;;12.02;7.88;;;6.70;96.10;;;;;;6134000;23;20021;-74
2022/01/23 08:22:47;;;;;;;16.58;8.68;;;6.70;96.10;;;;;;6133383;23;20236;-74
2022/01/23 08:25:20;;;;;;;15.85;9.65;;;6.70;96.10;;;;;;6135526;23;20024;-74
2022/01/23 08:27:57;;;;;;;14.77;9.95;;;6.70;96.10;;;;;;6158432;23;20024;-74
2022/01/23 08:30:29;;;;;;;14.27;9.43;;;6.70;96.10;;;;;;6135205;23;20017;-75
2022/01/23 08:32:54;;;;;;;12.85;5.30;;;6.70;96.10;;;;;;6185431;23;20013;-75
2022/01/23 08:35:20;;;;;;;16.15;8.93;;;6.70;96.10;;;;;;6134980;23;20099;-75
2022/01/23 08:37:46;;;;;;;13.80;9.30;;;6.80;96.20;;;;;;6134460;23;20017;-73
2022/01/23 08:40:22;;;;;;;15.90;9.82;;;6.80;96.10;;;;;;6160634;23;20092;-73
2022/01/23 08:42:48;;;;;;;15.43;9.98;;;6.80;96.10;;;;;;6137622;23;20032;-76
2022/01/23 08:45:14;;;;;;;14.73;9.70;;;6.90;96.10;;;;;;6135179;23;20451;-77
2022/01/23 08:47:40;;;;;;;17.83;10.30;;;6.90;96.00;;;;;;6136275;23;20017;-75
2022/01/23 08:50:06;;;;;;;15.95;9.40;;;6.90;96.00;;;;;;6160909;23;20017;-75
2022/01/23 08:52:32;;;;;;;14.23;9.50;;;6.90;96.00;;;;;;6159326;23;20088;-77
2022/01/23 08:54:58;;;;;;;13.65;10.20;;;6.90;96.00;;;;;;6135964;23;20396;-75
2022/01/23 08:57:24;;;;;;;16.75;11.15;;;6.90;96.00;;;;;;6111767;23;20017;-75
2022/01/23 08:59:50;;;;;;;15.93;9.98;;;7.00;96.00;;;;;;6110980;23;20085;-75
2022/01/23 09:02:16;;;;;;;13.98;9.55;;;7.00;96.00;;;;;;6161028;23;20013;-75
2022/01/23 09:04:43;;;;;;;15.77;10.75;;;7.00;95.90;;;;;;6160946;23;20021;-75
2022/01/23 09:07:09;;;;;;;14.77;10.18;;;7.00;95.90;;;;;;6161184;23;20040;-75
2022/01/23 09:09:38;;;;;;;16.20;11.07;;;7.00;95.90;;;;;;6136147;23;20025;-76
2022/01/23 09:12:28;;;;;;;16.45;10.43;;;7.00;95.90;;;;;;6161616;23;20085;-75
2022/01/23 09:14:53;;;;;;;15.82;10.95;;;7.00;95.90;;;;;;6140184;23;20052;-75
2022/01/23 09:17:19;;;;;;;14.10;9.63;;;7.00;95.90;;;;;;6161053;23;20017;-75
2022/01/23 09:19:47;;;;;;;15.48;11.07;;;7.10;95.90;;;;;;6160755;23;20336;-77
2022/01/23 09:22:12;;;;;;;22.23;12.07;;;7.10;95.80;;;;;;6161207;23;20071;-75
2022/01/23 09:24:38;;;;;;;19.63;11.98;;;7.10;95.80;;;;;;6187368;23;20092;-77
2022/01/23 09:27:07;;;;;;;17.65;11.27;;;7.20;95.80;;;;;;6111317;23;20025;-75
2022/01/23 09:29:39;;;;;;;19.67;11.25;;;7.20;95.80;;;;;;6161499;23;20021;-75
2022/01/23 09:32:15;;;;;;;18.00;11.68;;;7.20;95.70;;;;;;6137117;23;20092;-76
2022/01/23 09:34:41;;;;;;;16.25;10.68;;;7.20;95.70;;;;;;6160692;23;20083;-76
2022/01/23 09:37:08;;;;;;;17.77;11.05;;;7.30;95.70;;;;;;6160677;23;20084;-76
2022/01/23 09:39:34;;;;;;;17.95;11.55;;;7.30;95.70;;;;;;6161042;23;20067;-75
2022/01/23 09:42:00;;;;;;;14.68;11.05;;;7.30;95.70;;;;;;6160988;23;20072;-76
2022/01/23 09:44:26;;;;;;;14.48;9.65;;;7.40;95.60;;;;;;6135963;23;20029;-75
2022/01/23 09:46:51;;;;;;;15.52;10.20;;;7.40;95.60;;;;;;6135225;23;20448;-74
2022/01/23 09:49:17;;;;;;;15.70;9.70;;;7.40;95.50;;;;;;6160340;23;20076;-74
2022/01/23 09:51:44;;;;;;;14.85;10.02;;;7.50;95.60;;;;;;6134737;23;20100;-74
2022/01/23 09:54:11;;;;;;;15.85;9.95;;;7.50;95.50;;;;;;6135931;23;20021;-75
2022/01/23 09:56:37;;;;;;;12.25;8.77;;;7.50;95.50;;;;;;6112545;23;20416;-77
2022/01/23 09:59:02;;;;;;;15.90;10.68;;;7.50;95.50;;;;;;6137801;23;20021;-76
2022/01/23 10:01:28;;;;;;;14.68;8.90;;;7.60;95.50;;;;;;6161914;23;20023;-76
2022/01/23 10:03:54;;;;;;;13.57;9.43;;;7.60;95.40;;;;;;6160217;23;20099;-75
2022/01/23 10:06:19;;;;;;;12.98;9.00;;;7.60;95.40;;;;;;6134745;23;20091;-76
2022/01/23 10:08:46;;;;;;;15.48;9.65;;;7.70;95.40;;;;;;6185709;23;20021;-75
2022/01/23 10:11:13;;;;;;;12.15;8.35;;;7.70;95.30;;;;;;6135461;23;20012;-74
2022/01/23 10:13:40;;;;;;;12.20;8.30;;;7.80;95.30;;;;;;6186035;23;20017;-74
2022/01/23 10:16:06;;;;;;;13.38;8.85;;;7.80;95.30;;;;;;6133832;23;20013;-74
2022/01/23 10:18:31;;;;;;;12.35;7.80;;;7.90;95.30;;;;;;6135404;23;20070;-75
2022/01/23 10:20:57;;;;;;;12.07;7.30;;;7.90;95.30;;;;;;6134344;23;20055;-77
2022/01/23 10:23:24;;;;;;;9.00;6.25;;;7.90;95.20;;;;;;6135776;23;20067;-75
2022/01/23 10:25:51;;;;;;;10.15;6.40;;;7.90;95.20;;;;;;6134517;23;20375;-75
2022/01/23 10:28:20;;;;;;;10.63;6.88;;;8.00;95.10;;;;;;6110905;23;20013;-75
2022/01/23 10:30:50;;;;;;;11.63;6.72;;;8.00;95.10;;;;;;6135121;23;20087;-79
2022/01/23 10:33:25;;;;;;;9.77;6.55;;;8.00;95.10;;;;;;6159961;23;20009;-76
2022/01/23 10:36:07;;;;;;;9.27;6.53;;;8.00;95.10;;;;;;6135063;23;20023;-75
2022/01/23 10:38:53;;;;;;;11.55;7.28;;;8.00;95.00;;;;;;6158499;23;20045;-74
2022/01/23 10:49:59;;;;;;;8.32;5.82;;;8.20;94.90;;;;;;6142164;23;20021;-80
2022/01/23 10:52:28;;;;;;;7.88;5.03;;;8.30;94.90;;;;;;6139547;23;20071;-81
2022/01/23 10:54:53;;;;;;;9.75;6.75;;;8.30;94.70;;;;;;6162863;23;20028;-78
2022/01/23 10:57:19;;;;;;;9.05;5.78;;;8.40;94.70;;;;;;6138258;23;20021;-80
2022/01/23 10:59:47;;;;;;;6.68;4.07;;;8.40;94.60;;;;;;6161927;23;20017;-82
2022/01/23 11:02:21;;;;;;;7.45;4.72;;;8.80;95.00;;;;;;6110929;23;20128;-78
2022/01/23 11:05:04;;;;;;;7.60;5.22;;;9.00;94.80;;;;;;6139099;23;20104;-78
2022/01/23 11:07:31;;;;;;;7.35;5.05;;;9.00;94.20;;;;;;6113521;23;20021;-78
2022/01/23 11:10:10;;;;;;;8.27;5.30;;;9.00;94.00;;;;;;6162856;23;20375;-78
2022/01/23 11:17:22;;;;;;;7.55;5.05;;;9.10;93.90;;;;;;6162789;23;20428;-83
2022/01/23 11:18:32;;;;;;;7.00;4.80;;;9.10;93.70;;;;;;6142276;23;20022;-79
2022/01/23 11:20:58;;;;;;;7.78;5.30;;;9.20;93.70;;;;;;6113080;23;20027;-77
2022/01/23 11:23:30;;;;;;;8.07;5.00;;;9.20;93.60;;;;;;6162466;23;20382;-80
2022/01/23 11:25:56;;;;;;;5.97;3.50;;;9.20;93.50;;;;;;6113766;23;20017;-76
2022/01/23 11:28:33;;;;;;;4.70;2.92;;;9.20;93.30;;;;;;6161046;23;20044;-77
2022/01/23 11:30:59;;;;;;;4.88;2.05;;;9.30;93.10;;;;;;6112363;23;20444;-77
2022/01/23 11:33:25;;;;;;;4.53;1.85;;;9.30;93.10;;;;;;6161587;23;20087;-80
2022/01/23 11:35:51;;;;;;;4.15;2.55;;;9.30;92.90;;;;;;6136003;23;20028;-77
2022/01/23 11:38:19;;;;;;;3.85;1.90;;;9.20;92.70;;;;;;6161477;23;20021;-77
2022/01/23 11:54:42;;;;;;;3.90;1.58;;;9.10;92.40;;;;;;6140198;23;20021;-78
2022/01/23 11:57:30;;;;;;;2.53;1.25;;;9.00;92.40;;;;;;6161115;23;20036;-78
2022/01/23 11:59:58;;;;;;;2.92;1.65;;;9.00;92.10;;;;;;6137051;23;20029;-78
2022/01/23 12:02:28;;;;;;;3.78;1.80;;;8.90;92.30;;;;;;6138617;23;20017;-79
2022/01/23 12:05:13;;;;;;;2.95;1.50;;;8.90;92.20;;;;;;6137471;23;20537;-78
2022/01/23 12:07:45;;;;;;;5.60;1.42;;;8.90;92.10;;;;;;6159507;23;20017;-78
2022/01/23 12:10:47;;;;;;;5.35;1.20;;;9.20;92.80;;;;;;6160064;23;20017;-78
2022/01/23 12:18:51;;;;;;;2.80;0.95;;;9.80;91.10;;;;;;6147029;23;20103;-82
2022/01/23 12:21:45;;;;;;;7.50;1.85;;;10.00;90.80;;;;;;6142162;23;20021;-83
2022/01/23 12:24:12;;;;;;;8.35;1.90;;;10.10;90.30;;;;;;6137030;23;20052;-80
2022/01/23 12:26:39;;;;;;;5.70;1.25;;;10.20;90.30;;;;;;6140946;23;20021;-85
2022/01/23 12:29:23;;;;;;;4.50;1.45;;;10.20;90.10;;;;;;6140898;23;20048;-83
2022/01/23 12:31:49;;;;;;;5.32;1.60;;;10.20;89.50;;;;;;6165207;23;20028;-82
2022/01/23 12:34:26;;;;;;;4.88;1.58;;;10.30;90.10;;;;;;6164038;23;20025;-83
2022/01/23 12:37:02;;;;;;;6.20;1.90;;;10.40;90.10;;;;;;6118055;23;20017;-85
2022/01/23 12:39:28;;;;;;;3.38;1.30;;;10.40;89.90;;;;;;6142444;23;20100;-86
2022/01/23 12:41:59;;;;;;;4.35;1.48;;;10.40;89.90;;;;;;6140879;23;20032;-86
2022/01/23 12:44:31;;;;;;;4.97;1.77;;;10.40;89.50;;;;;;6140674;23;20028;-84
2022/01/23 12:46:57;;;;;;;6.07;1.60;;;10.50;89.60;;;;;;6140548;23;20028;-77
2022/01/23 12:49:49;;;;;;;2.75;1.42;;;10.50;89.70;;;;;;6140842;23;20448;-83
2022/01/23 12:52:25;;;;;;;2.63;1.45;;;10.60;88.60;;;;;;6141903;23;20013;-82
2022/01/23 12:54:53;;;;;;;3.05;1.70;;;10.40;88.70;;;;;;6143780;23;20137;-80
2022/01/23 12:57:42;;;;;;;3.00;1.50;;;10.10;88.70;;;;;;6117178;23;20017;-80
2022/01/23 13:00:19;;;;;;;3.58;1.85;;;9.90;88.00;;;;;;6165792;23;20472;-83
2022/01/23 13:02:49;;;;;;;3.33;1.50;;;9.70;89.30;;;;;;6143583;23;20032;-80
2022/01/23 13:05:16;;;;;;;3.05;1.70;;;9.50;89.40;;;;;;6141335;23;20017;-80
2022/01/23 13:07:51;;;;;;;2.88;1.50;;;9.40;89.60;;;;;;6140885;23;20348;-79
2022/01/23 13:12:53;;;;;;;4.28;1.50;;;9.20;90.00;;;;;;6141273;23;20115;-81
2022/01/23 13:35:06;;;;;;;3.65;2.15;;;9.90;90.20;;;;;;6138768;23;20021;-79
2022/01/23 13:37:34;;;;;;;4.63;2.03;;;10.00;90.00;;;;;;6161834;23;20017;-80
2022/01/23 13:40:13;;;;;;;6.25;2.13;;;10.10;89.40;;;;;;6138221;23;20043;-81
2022/01/23 13:51:17;;;;;;;7.53;2.80;;;10.40;87.80;;;;;;6140252;23;20025;-84
2022/01/23 13:59:48;;;;;;;5.35;2.97;;;10.80;88.40;;;;;;6164963;23;20021;-77
2022/01/23 14:02:26;;;;;;;5.43;3.22;;;10.70;88.60;;;;;;6166613;23;20017;-86
2022/01/23 14:05:04;;;;;;;5.38;2.85;;;10.50;88.70;;;;;;6139005;23;20044;-76
2022/01/23 14:07:30;;;;;;;5.97;2.90;;;10.30;88.80;;;;;;6163403;23;20048;-77
2022/01/23 14:09:58;;;;;;;6.00;2.90;;;10.10;89.30;;;;;;6164474;23;20367;-79
2022/01/23 14:12:24;;;;;;;4.53;3.05;;;10.00;89.60;;;;;;6139652;23;20428;-78
2022/01/23 14:14:53;;;;;;;5.63;3.60;;;9.90;90.00;;;;;;6141220;23;20021;-81
2022/01/23 14:17:20;;;;;;;5.22;3.40;;;9.70;90.10;;;;;;6164723;23;20013;-78
2022/01/23 14:20:00;;;;;;;4.70;3.53;;;9.60;90.20;;;;;;6139486;23;20317;-76
2022/01/23 14:22:39;;;;;;;6.78;3.10;;;9.50;90.10;;;;;;6115856;23;20075;-86
2022/01/23 14:25:08;;;;;;;5.57;3.00;;;9.50;90.90;;;;;;6142859;23;20043;-80
2022/01/23 14:27:34;;;;;;;8.32;4.30;;;9.80;91.10;;;;;;6138390;23;20125;-77
2022/01/23 14:30:04;;;;;;;8.05;4.38;;;9.90;90.60;;;;;;6135687;23;20013;-75
2022/01/23 14:32:42;;;;;;;6.78;3.58;;;9.80;90.20;;;;;;6136307;23;20017;-78
2022/01/23 14:35:18;;;;;;;5.00;3.13;;;9.70;90.00;;;;;;6139457;23;20100;-76
2022/01/23 14:37:45;;;;;;;6.32;2.92;;;9.60;90.10;;;;;;6140185;23;20009;-77
2022/01/23 14:40:22;;;;;;;5.85;3.67;;;9.50;90.50;;;;;;6135217;23;20021;-75
2022/01/23 14:43:04;;;;;;;6.07;3.47;;;9.60;90.60;;;;;;6160623;23;20348;-73
2022/01/23 14:45:31;;;;;;;7.07;5.10;;;9.50;90.30;;;;;;6158566;23;20020;-74
2022/01/23 14:47:57;;;;;;;6.80;5.13;;;9.40;90.40;;;;;;6185220;23;20100;-74
2022/01/23 14:50:25;;;;;;;8.57;5.43;;;9.40;90.40;;;;;;6133866;23;20063;-76
2022/01/23 14:52:50;;;;;;;8.20;5.00;;;9.30;90.50;;;;;;6134722;23;20028;-74
2022/01/23 14:55:16;;;;;;;6.95;5.10;;;9.20;90.50;;;;;;6159525;23;20340;-75
2022/01/23 14:57:44;;;;;;;7.32;4.80;;;9.10;90.60;;;;;;6158891;23;20124;-75
2022/01/23 15:00:10;;;;;;;5.85;4.13;;;9.00;90.60;;;;;;6159437;23;20020;-75
2022/01/23 15:02:36;;;;;;;5.78;3.80;;;9.00;90.60;;;;;;6133973;23;20017;-74
2022/01/23 15:05:03;;;;;;;4.65;3.05;;;8.90;90.60;;;;;;6188325;23;20092;-77
2022/01/23 15:07:40;;;;;;;9.40;2.72;;;8.90;90.60;;;;;;6164366;23;20016;-82
2022/01/23 15:10:06;;;;;;;3.53;2.05;;;9.30;91.60;;;;;;6164012;23;20020;-80
2022/01/23 15:12:31;;;;;;;5.05;1.80;;;9.30;90.80;;;;;;6163005;23;20428;-79
2022/01/23 15:14:57;;;;;;;2.42;1.65;;;9.30;90.20;;;;;;6139998;23;20029;-77
2022/01/23 15:17:24;;;;;;;2.28;1.58;;;9.30;90.00;;;;;;6163573;23;20116;-77
2022/01/23 15:19:50;;;;;;;1.83;1.40;;;9.20;89.80;;;;;;6138966;23;20032;-77
2022/01/23 15:22:16;;;;;;;2.65;1.58;;;9.20;89.90;;;;;;6114273;23;20351;-77
2022/01/23 15:24:42;;;;;;;3.28;1.55;;;9.10;89.80;;;;;;6162391;23;20013;-77
2022/01/23 15:27:08;;;;;;;3.22;1.75;;;9.10;90.00;;;;;;6189659;23;20025;-77
2022/01/23 15:29:33;;;;;;;3.30;1.90;;;9.00;89.90;;;;;;6189162;23;20017;-76
2022/01/23 15:31:59;;;;;;;4.25;1.98;;;8.90;89.90;;;;;;6164122;23;20023;-77
2022/01/23 15:34:25;;;;;;;4.07;2.13;;;8.90;89.90;;;;;;6139588;23;20017;-76
2022/01/23 15:36:53;;;;;;;3.55;2.35;;;8.90;90.00;;;;;;6190506;23;20020;-78
2022/01/23 15:39:20;;;;;;;2.83;2.13;;;8.80;90.10;;;;;;6165513;23;20060;-78
2022/01/23 15:41:45;;;;;;;5.10;2.33;;;8.80;90.20;;;;;;6164589;23;20028;-77
2022/01/23 15:44:11;;;;;;;3.58;2.45;;;8.70;90.20;;;;;;6139832;23;20009;-77
2022/01/23 15:46:37;;;;;;;3.00;2.28;;;8.70;90.20;;;;;;6137562;23;20021;-77
2022/01/23 15:49:03;;;;;;;3.63;2.40;;;8.60;90.20;;;;;;6139364;23;20024;-77
2022/01/23 15:51:29;;;;;;;3.50;2.28;;;8.60;90.30;;;;;;6163951;23;20324;-78
2022/01/23 15:53:54;;;;;;;4.40;2.30;;;8.50;90.30;;;;;;6165079;23;20024;-78
2022/01/23 15:56:20;;;;;;;3.75;2.00;;;8.50;90.30;;;;;;6165359;23;20025;-77
2022/01/23 15:58:46;;;;;;;5.35;2.40;;;8.40;90.30;;;;;;6140398;23;20072;-77
2022/01/23 16:01:11;;;;;;;4.28;2.88;;;8.40;90.30;;;;;;6140647;23;20017;-77
2022/01/23 16:03:37;;;;;;;6.15;3.10;;;8.40;90.40;;;;;;6164934;23;20028;-77
2022/01/23 16:06:03;;;;;;;4.65;3.22;;;8.40;90.40;;;;;;6162888;23;20083;-81
2022/01/23 16:08:28;;;;;;;7.20;3.38;;;8.30;90.40;;;;;;6171347;23;20041;-80
2022/01/23 16:10:54;;;;;;;6.32;3.15;;;8.40;90.60;;;;;;6159535;23;20013;-80
2022/01/23 16:13:30;;;;;;;8.52;3.10;;;8.40;90.40;;;;;;6158687;23;20017;-82
2022/01/23 16:15:57;;;;;;;8.75;3.40;;;8.80;91.40;;;;;;6135201;23;20085;-79
2022/01/23 16:18:32;;;;;;;6.07;3.60;;;9.10;91.40;;;;;;6158397;23;20017;-82
2022/01/23 16:20:57;;;;;;;6.75;3.40;;;9.20;90.70;;;;;;6144195;23;20028;-80
2022/01/23 16:23:23;;;;;;;4.53;3.10;;;9.10;90.20;;;;;;6165708;23;20014;-83
2022/01/23 16:25:51;;;;;;;3.45;2.40;;;9.00;90.10;;;;;;6141856;23;20021;-86
2022/01/23 16:28:20;;;;;;;3.80;2.75;;;8.90;90.20;;;;;;6143055;23;20108;-86
2022/01/23 16:30:53;;;;;;;5.18;2.92;;;8.80;90.20;;;;;;6167062;23;20048;-86
2022/01/23 16:33:19;;;;;;;5.20;3.47;;;8.70;90.30;;;;;;6142217;23;20503;-84
2022/01/23 16:35:45;;;;;;;5.22;3.47;;;8.60;90.40;;;;;;6165461;23;20025;-84
2022/01/23 16:38:11;;;;;;;6.43;4.50;;;8.50;90.40;;;;;;6141541;23;20021;-82
2022/01/23 16:40:39;;;;;;;5.40;3.75;;;8.50;90.40;;;;;;6164164;23;20078;-81
2022/01/23 16:43:05;;;;;;;5.13;3.65;;;8.40;90.50;;;;;;6113558;23;20014;-83